Home > Products > Valid Products > TAF

000
FTUS43 KPAH 262320
TAFPAH
TAF
KPAH 262320Z 2700/2724 34012KT P6SM OVC025
      TEMPO 2700/2702 5SM -SN BR
     FM270600 36008KT P6SM SCT025 BKN040
     FM271500 01010KT P6SM BKN025=



000
FTUS43 KPAH 262159 AAA
TAFEVV
TAF AMD
KEVV 262159Z 2622/2718 34010KT 6SM HZ OVC030
      TEMPO 2622/2624 5SM -SN BR BKN018
     FM270100 36007KT P6SM OVC020
     FM270500 35006KT P6SM SCT020 BKN035
     FM271500 36007KT P6SM BKN020=



000
FTUS43 KPAH 262158 AAA
TAFPAH
TAF AMD
KPAH 262158Z 2622/2718 34012KT 5SM HZ OVC020
      TEMPO 2622/2624 4SM -SN BR OVC015
     FM270000 36011KT P6SM OVC020
     FM270600 36008KT P6SM SCT025 BKN040
     FM271500 01010KT P6SM BKN025=



000
FTUS43 KPAH 262158 AAA
TAFPAH
TAF AMD
KPAH 262158Z 2622/2718 34012KT 5SM HZ OVC020
      TEMPO 2622/2624 4SM -SN BR OVC015
     FM270000 36011KT P6SM OVC020
     FM270600 36008KT P6SM SCT025 BKN040
     FM271500 01010KT P6SM BKN025=



000
FTUS43 KPAH 261748 CCA
TAFEVV
TAF COR
KEVV 261748Z 2618/2718 34012G18KT 4SM -SN BR OVC015
     FM262000 35012G18KT P6SM OVC015
     FM270100 36007KT P6SM OVC020
     FM270500 35006KT P6SM SCT020 BKN035
     FM271500 36007KT P6SM BKN020=



000
FTUS43 KPAH 261748 CCA
TAFEVV
TAF COR
KEVV 261748Z 2618/2718 34012G18KT 4SM -SN BR OVC015
     FM262000 35012G18KT P6SM OVC015
     FM270100 36007KT P6SM OVC020
     FM270500 35006KT P6SM SCT020 BKN035
     FM271500 36007KT P6SM BKN020=



000
FTUS43 KPAH 261720
TAFCGI
TAF
KCGI 261720Z 2618/2718 35015G21KT P6SM OVC015
     FM262300 36011KT P6SM OVC020
     FM270600 36008KT P6SM SCT025 BKN040
     FM271500 01010KT P6SM BKN025=



000
FTUS43 KPAH 261720
TAFPAH
TAF
KPAH 261720Z 2618/2718 36012G20KT P6SM SCT025 OVC050
     FM261900 36012G20KT P6SM SCT015 OVC025
      TEMPO 2619/2621 5SM -SN OVC015
     FM262300 36011KT P6SM OVC020
     FM270600 36008KT P6SM SCT025 BKN040
     FM271500 01010KT P6SM BKN025=



000
FTUS43 KPAH 261720
TAFEVV
TAF
KEVV 261720Z 2618/2718 34010KT P6SM SCT015 OVC035
     FM261900 35012G18KT 4SM -SN BR OVC015
     FM262100 36012G18KT P6SM OVC015
     FM270100 36007KT P6SM OVC020
     FM270500 35006KT P6SM SCT020 BKN035
     FM271500 36007KT P6SM BKN020=



000
FTUS43 KPAH 261720
TAFCGI
TAF
KCGI 261720Z 2618/2718 35015G21KT P6SM OVC015
     FM262300 36011KT P6SM OVC020
     FM270600 36008KT P6SM SCT025 BKN040
     FM271500 01010KT P6SM BKN025=



000
FTUS43 KPAH 261720
TAFEVV
TAF
KEVV 261720Z 2618/2718 34010KT P6SM SCT015 OVC035
     FM261900 35012G18KT 4SM -SN BR OVC015
     FM262100 36012G18KT P6SM OVC015
     FM270100 36007KT P6SM OVC020
     FM270500 35006KT P6SM SCT020 BKN035
     FM271500 36007KT P6SM BKN020=



000
FTUS43 KPAH 261138
TAFPAH
TAF
KPAH 261138Z 2612/2712 VRB03KT 5SM BR OVC050
     FM261600 36008KT P6SM -SN OVC015
     FM261800 36011G18KT P6SM OVC015
     FM270500 36008KT P6SM OVC012=



000
FTUS43 KPAH 261138
TAFCGI
TAF
KCGI 261138Z 2612/2712 VRB03KT 5SM BR OVC050
     FM261500 35008KT 6SM -SN OVC015
     FM261700 35012G19KT P6SM OVC015=



000
FTUS43 KPAH 261138
TAFEVV
TAF
KEVV 261138Z 2612/2712 36006KT P6SM OVC070
     FM261600 35008KT 6SM -SN OVC015
     FM261900 35010G17KT P6SM OVC012
     FM270400 35006KT P6SM SCT012 BKN050=



000
FTUS43 KPAH 261138
TAFPAH
TAF
KPAH 261138Z 2612/2712 VRB03KT 5SM BR OVC050
     FM261600 36008KT P6SM -SN OVC015
     FM261800 36011G18KT P6SM OVC015
     FM270500 36008KT P6SM OVC012=



000
FTUS43 KPAH 261138
TAFEVV
TAF
KEVV 261138Z 2612/2712 36006KT P6SM OVC070
     FM261600 35008KT 6SM -SN OVC015
     FM261900 35010G17KT P6SM OVC012
     FM270400 35006KT P6SM SCT012 BKN050=



000
FTUS43 KPAH 261138
TAFCGI
TAF
KCGI 261138Z 2612/2712 VRB03KT 5SM BR OVC050
     FM261500 35008KT 6SM -SN OVC015
     FM261700 35012G19KT P6SM OVC015=



000
FTUS43 KPAH 260712 AAB
TAFPAH
TAF AMD
KPAH 260712Z 2607/2706 VRB02KT P6SM SKC
      TEMPO 2609/2612 4SM BR SCT100
     FM261200 33004KT P6SM SCT015 BKN050
     FM261500 35011KT P6SM OVC015=



000
FTUS43 KPAH 260712 AAB
TAFPAH
TAF AMD
KPAH 260712Z 2607/2706 VRB02KT P6SM SKC
      TEMPO 2609/2612 4SM BR SCT100
     FM261200 33004KT P6SM SCT015 BKN050
     FM261500 35011KT P6SM OVC015=



000
FTUS43 KPAH 260711 AAA
TAFCGI
TAF AMD
KCGI 260711Z 2607/2706 VRB02KT 1/4SM FZFG VV002
      TEMPO 2608/2610 3SM BR BKN120
     FM261000 VRB03KT 5SM BR BKN050
     FM261200 35012KT P6SM OVC015
     FM270000 35010KT P6SM BKN025=



000
FTUS43 KPAH 260711 AAA
TAFCGI
TAF AMD
KCGI 260711Z 2607/2706 VRB02KT 1/4SM FZFG VV002
      TEMPO 2608/2610 3SM BR BKN120
     FM261000 VRB03KT 5SM BR BKN050
     FM261200 35012KT P6SM OVC015
     FM270000 35010KT P6SM BKN025=



000
FTUS43 KPAH 260537
TAFCGI
TAF
KCGI 260537Z 2606/2706 VRB02KT 2SM BR SKC
      TEMPO 2606/2609 3/4SM BR SCT060
     FM260900 VRB03KT 5SM BR BKN050
     FM261200 35012KT P6SM OVC015
     FM270000 35010KT P6SM BKN025=



000
FTUS43 KPAH 260537
TAFEVV
TAF
KEVV 260537Z 2606/2706 01003KT P6SM SCT250
     FM261000 36004KT P6SM BKN050
     FM261300 35011KT P6SM OVC015=



000
FTUS43 KPAH 260537
TAFPAH
TAF
KPAH 260537Z 2606/2706 VRB02KT P6SM SKC
      TEMPO 2606/2610 4SM BR SCT060
     FM261000 33004KT P6SM SCT015 BKN050
     FM261500 35011KT P6SM OVC015=



000
FTUS43 KPAH 260537
TAFCGI
TAF
KCGI 260537Z 2606/2706 VRB02KT 2SM BR SKC
      TEMPO 2606/2609 3/4SM BR SCT060
     FM260900 VRB03KT 5SM BR BKN050
     FM261200 35012KT P6SM OVC015
     FM270000 35010KT P6SM BKN025=



000
FTUS43 KPAH 260537
TAFEVV
TAF
KEVV 260537Z 2606/2706 01003KT P6SM SCT250
     FM261000 36004KT P6SM BKN050
     FM261300 35011KT P6SM OVC015=



000
FTUS43 KPAH 260537
TAFPAH
TAF
KPAH 260537Z 2606/2706 VRB02KT P6SM SKC
      TEMPO 2606/2610 4SM BR SCT060
     FM261000 33004KT P6SM SCT015 BKN050
     FM261500 35011KT P6SM OVC015=



000
FTUS43 KPAH 260447 AAA
TAFCGI
TAF AMD
KCGI 260447Z 2605/2624 00000KT 3SM BR SCT250
      TEMPO 2605/2608 1SM BR
     FM260800 01004KT P6SM SCT025 OVC050
     FM261500 01010KT P6SM OVC025 PROB30 2616/2618 5SM -SHSN
     FM261800 35013G19KT P6SM -SHSN BKN015
      TEMPO 2618/2622 4SM -SHSN=



000
FTUS43 KPAH 252320
TAFCGI
TAF
KCGI 252320Z 2600/2624 VRB03KT P6SM SCT050 OVC150
     FM260500 01004KT P6SM SCT025 OVC050
     FM261500 01010KT P6SM OVC025 PROB30 2616/2618 5SM -SHSN
     FM261800 35013G19KT P6SM -SHSN BKN015
      TEMPO 2618/2622 4SM -SHSN=



000
FTUS43 KPAH 252320
TAFPAH
TAF
KPAH 252320Z 2600/2624 VRB03KT P6SM SCT050 OVC150
     FM260600 01004KT P6SM SCT025 OVC050
     FM261500 01008KT P6SM OVC025
     FM261800 35013G19KT P6SM -SHSN BKN015
      TEMPO 2620/2624 4SM -SHSN=



000
FTUS43 KPAH 252320
TAFEVV
TAF
KEVV 252320Z 2600/2624 VRB03KT P6SM SCT100 OVC150
     FM260500 01003KT P6SM SCT060 OVC100
     FM260900 01005KT P6SM SCT030 OVC060
     FM261300 01007KT P6SM OVC030
     FM261800 35013G16KT P6SM -SHSN BKN015
      TEMPO 2620/2624 4SM -SHSN=



000
FTUS43 KPAH 251720
TAFCGI
TAF
KCGI 251720Z 2518/2618 VRB04KT P6SM SCT100 OVC250
     FM252300 VRB03KT P6SM SCT050 OVC100
     FM260500 01004KT P6SM SCT025 OVC050
     FM261500 01010KT P6SM OVC025 PROB30 2616/2618 5SM -SHSN=



000
FTUS43 KPAH 251720
TAFPAH
TAF
KPAH 251720Z 2518/2618 VRB04KT P6SM SCT100 OVC250
     FM260000 VRB03KT P6SM SCT050 OVC100
     FM260600 01004KT P6SM SCT025 OVC050
     FM261500 01008KT P6SM OVC025=



000
FTUS43 KPAH 251720
TAFEVV
TAF
KEVV 251720Z 2518/2618 VRB03KT P6SM SCT150 BKN250
     FM260000 VRB03KT P6SM SCT100 OVC150
     FM260500 01003KT P6SM SCT060 OVC100
     FM260900 01005KT P6SM SCT030 OVC060
     FM261300 01007KT P6SM OVC030=



000
FTUS43 KPAH 251720
TAFEVV
TAF
KEVV 251720Z 2518/2618 VRB03KT P6SM SCT150 BKN250
     FM260000 VRB03KT P6SM SCT100 OVC150
     FM260500 01003KT P6SM SCT060 OVC100
     FM260900 01005KT P6SM SCT030 OVC060
     FM261300 01007KT P6SM OVC030=



000
FTUS43 KPAH 251720
TAFCGI
TAF
KCGI 251720Z 2518/2618 VRB04KT P6SM SCT100 OVC250
     FM252300 VRB03KT P6SM SCT050 OVC100
     FM260500 01004KT P6SM SCT025 OVC050
     FM261500 01010KT P6SM OVC025 PROB30 2616/2618 5SM -SHSN=



000
FTUS43 KPAH 251720
TAFPAH
TAF
KPAH 251720Z 2518/2618 VRB04KT P6SM SCT100 OVC250
     FM260000 VRB03KT P6SM SCT050 OVC100
     FM260600 01004KT P6SM SCT025 OVC050
     FM261500 01008KT P6SM OVC025=



000
FTUS43 KPAH 251511 AAA
TAFCGI
TAF AMD
KCGI 251511Z 2515/2612 VRB04KT P6SM SCT100 BKN250
      TEMPO 2515/2517 5SM HZ
     FM260000 02004KT P6SM OVC100=



000
FTUS43 KPAH 251120
TAFCGI
TAF
KCGI 251120Z 2512/2612 VRB02KT P6SM SKC
     FM251500 03004KT P6SM BKN250
     FM260000 02004KT P6SM OVC100=



000
FTUS43 KPAH 251120
TAFEVV
TAF
KEVV 251120Z 2512/2612 23004KT P6SM SKC
     FM251500 05004KT P6SM BKN250
     FM260000 01004KT P6SM OVC100=



000
FTUS43 KPAH 251120
TAFPAH
TAF
KPAH 251120Z 2512/2612 VRB02KT P6SM SKC
     FM251500 05004KT P6SM BKN250
     FM260000 02003KT P6SM OVC100=



000
FTUS43 KPAH 250520
TAFEVV
TAF
KEVV 250520Z 2506/2606 23004KT P6SM SKC
     FM251500 05004KT P6SM BKN250
     FM260000 01004KT P6SM OVC100=



000
FTUS43 KPAH 250520
TAFCGI
TAF
KCGI 250520Z 2506/2606 VRB02KT P6SM SKC
     FM251500 03004KT P6SM BKN250
     FM260000 02004KT P6SM OVC100=



000
FTUS43 KPAH 250520
TAFPAH
TAF
KPAH 250520Z 2506/2606 VRB02KT P6SM SKC
     FM251500 05004KT P6SM BKN250
     FM260000 02003KT P6SM OVC100=



000
FTUS43 KPAH 250159 AAA
TAFEVV
TAF AMD
KEVV 250159Z 2502/2524 23007KT P6SM SKC
      TEMPO 2502/2506 SCT040
     FM251000 VRB03KT P6SM SCT250
     FM251500 05004KT P6SM BKN250=



000
FTUS43 KPAH 242320
TAFPAH
TAF
KPAH 242320Z 2500/2524 23007KT P6SM SKC
     FM250200 VRB02KT P6SM SKC
     FM251500 05004KT P6SM BKN250=



000
FTUS43 KPAH 242320
TAFCGI
TAF
KCGI 242320Z 2500/2524 23006KT P6SM SKC
     FM250200 VRB02KT P6SM SKC
     FM251500 03004KT P6SM BKN250=



000
FTUS43 KPAH 242320
TAFEVV
TAF
KEVV 242320Z 2500/2524 24010KT P6SM SKC
     FM250200 23005KT P6SM BKN040
     FM251000 VRB03KT P6SM SCT250
     FM251500 05004KT P6SM BKN250=



000
FTUS43 KPAH 241720
TAFEVV
TAF
KEVV 241720Z 2418/2518 21010KT P6SM SCT100 BKN250
     FM250000 VRB03KT P6SM SCT250
     FM251500 VRB04KT P6SM SCT100 BKN250=



000
FTUS43 KPAH 241720
TAFPAH
TAF
KPAH 241720Z 2418/2518 23010KT P6SM SCT060 BKN250
     FM250000 VRB03KT P6SM SCT250
     FM251500 VRB04KT P6SM SCT100 BKN250=



000
FTUS43 KPAH 241120
TAFEVV
TAF
KEVV 241120Z 2412/2512 VRB02KT P6SM BKN120
     FM241500 22009KT P6SM SCT250
     FM250000 23004KT P6SM SCT050=



000
FTUS43 KPAH 241120
TAFCGI
TAF
KCGI 241120Z 2412/2512 22003KT P6SM OVC090
     FM241500 23009KT P6SM SCT050
     FM250000 23004KT P6SM SCT050=



000
FTUS43 KPAH 241120
TAFPAH
TAF
KPAH 241120Z 2412/2512 22003KT P6SM OVC090
     FM241600 23009KT P6SM SCT050
     FM250000 23004KT P6SM SCT050=



000
FTUS43 KPAH 240533
TAFCGI
TAF
KCGI 240533Z 2406/2506 VRB02KT P6SM OVC090
     FM241500 23009KT P6SM SCT050
     FM242100 22009KT P6SM SCT040
      TEMPO 2502/2506 BKN035=



000
FTUS43 KPAH 240533
TAFPAH
TAF
KPAH 240533Z 2406/2506 VRB02KT P6SM OVC090
     FM241600 23009KT P6SM SCT050
     FM242200 22009KT P6SM SCT040
      TEMPO 2503/2506 BKN035=



000
FTUS43 KPAH 240533
TAFEVV
TAF
KEVV 240533Z 2406/2506 01005KT P6SM SCT200
     FM240800 VRB02KT P6SM BKN120
     FM241500 22008KT P6SM SCT250
     FM250000 24008KT P6SM SCT040
      TEMPO 2502/2506 BKN035=



000
FTUS43 KPAH 240533
TAFCGI
TAF
KCGI 240533Z 2406/2506 VRB02KT P6SM OVC090
     FM241500 23009KT P6SM SCT050
     FM242100 22009KT P6SM SCT040
      TEMPO 2502/2506 BKN035=



000
FTUS43 KPAH 240533
TAFPAH
TAF
KPAH 240533Z 2406/2506 VRB02KT P6SM OVC090
     FM241600 23009KT P6SM SCT050
     FM242200 22009KT P6SM SCT040
      TEMPO 2503/2506 BKN035=



    US Dept of Commerce
    National Oceanic and Atmospheric Administration
    National Weather Service
    1325 East West Highway
    Silver Spring, MD 20910
    Page Author: NWS Internet Services Team
Disclaimer
Information Quality
Credits
Glossary
Privacy Policy
Freedom of Information Act (FOIA)
About Us
Career Opportunities